Carey — WDC3703 — position and weather

sailwx.info

Track history (hours):
 
Tides and Currents Weather Stations Pressure Air Temp Water Temp Dewpoint Dewpoint Depression Visibility Wind Speed Wind Dir Waves Ship Positions

Carey

Owner: Wilmington Tug, Inc, New Castle, DE. More information available from US FCC via Universal Licensing System and Coast Guard Vessel Documentation Center.

Last reported at 2017-Sep-16 04:47 UTC. Time now 2017-Sep-24 10:26 UTC.
Position N 39°43' W 075°31'.
Warning: this ship's position is 8 days out of date.

Length 13 m; draft 2.3 m.

Type: Tug. MMSI: 367012690.

Date/timePositionNaut miles runAvg speedWind from/ knotsBaromVisibWave heightAir tempDewpointWater temp
2017-Sep-16 04:47N 39°43' W 075°31'2 6.2
2017-Sep-16 04:31N 39°41' W 075°31'4 8.3
2017-Sep-16 04:00N 39°38' W 075°34'4 7.8
2017-Sep-16 03:31N 39°34' W 075°33'3 6.0
2017-Sep-16 03:00N 39°34' W 075°29'0 0.3
2017-Sep-16 02:30N 39°35' W 075°29'1 2.3
2017-Sep-16 02:00N 39°34' W 075°30'2 4.8
2017-Sep-16 01:30N 39°33' W 075°32'1 1.3
2017-Sep-16 01:00N 39°32' W 075°33'3 6.9
2017-Sep-16 00:30N 39°34' W 075°30'2 3.9
2017-Sep-16 00:00N 39°33' W 075°32'3 6.2
2017-Sep-15 23:30N 39°36' W 075°34'4 7.6
2017-Sep-15 23:00N 39°40' W 075°33'4 7.4
2017-Sep-15 22:31N 39°43' W 075°31'  
2017-Sep-13 18:23N 39°43' W 075°31'0 0.0
2017-Sep-12 02:13N 39°43' W 075°31'1 7.3
2017-Sep-12 02:00N 39°42' W 075°31'4 8.4
2017-Sep-12 01:30N 39°38' W 075°35'4 7.5
2017-Sep-12 01:00N 39°35' W 075°35'3 5.2
2017-Sep-12 00:30N 39°33' W 075°33'3 5.9
2017-Sep-12 00:00N 39°34' W 075°30'0 0.8
2017-Sep-11 23:30N 39°34' W 075°29'3 1.6
2017-Sep-11 21:32N 39°33' W 075°32'0 7.6
2017-Sep-11 21:30N 39°32' W 075°33'3 5.2
2017-Sep-11 21:00N 39°35' W 075°34'1 1.6
2017-Sep-11 20:30N 39°35' W 075°35'2 3.8
2017-Sep-11 20:00N 39°37' W 075°36'4 8.3
2017-Sep-11 19:30N 39°40' W 075°33'3 6.7
2017-Sep-11 19:00N 39°43' W 075°31'0 0.0
2017-Sep-10 15:46N 39°43' W 075°31'0 0.0
2017-Sep-10 15:30N 39°43' W 075°31'0 0.0
2017-Sep-08 16:49N 39°43' W 075°31'1 2.1
2017-Sep-08 16:30N 39°43' W 075°30'1 1.3
2017-Sep-08 16:00N 39°43' W 075°31'0 0.0
2017-Sep-07 19:34N 39°43' W 075°31'0 0.7
2017-Sep-07 19:30N 39°43' W 075°31'4 8.1
2017-Sep-07 19:00N 39°39' W 075°33'4 8.6
2017-Sep-07 18:30N 39°35' W 075°36'3 6.8
2017-Sep-07 18:00N 39°33' W 075°33'1 1.9
2017-Sep-07 17:30N 39°34' W 075°33'4 8.6
2017-Sep-07 17:00N 39°38' W 075°34'4 8.6
2017-Sep-07 16:30N 39°41' W 075°31'2 0.2
2017-Sep-07 09:20N 39°43' W 075°31'2 6.2
2017-Sep-07 09:00N 39°41' W 075°31'4 8.0
2017-Sep-07 08:30N 39°38' W 075°34'4 7.5
2017-Sep-07 08:00N 39°34' W 075°33'3 5.7
2017-Sep-07 07:30N 39°34' W 075°29'5 2.8
2017-Sep-07 05:54N 39°31' W 075°33'1 3.5
2017-Sep-07 05:30N 39°32' W 075°33'3 6.2
2017-Sep-07 05:00N 39°35' W 075°35'3 5.4
2017-Sep-07 04:30N 39°37' W 075°36'4 8.4
2017-Sep-07 04:00N 39°40' W 075°32'3 5.9
2017-Sep-07 03:30N 39°43' W 075°31'  
Track history (hours):
 
Tides and Currents Weather Stations Pressure Air Temp Water Temp Dewpoint Dewpoint Depression Visibility Wind Speed Wind Dir Waves Ship Positions

Carey

Owner: Wilmington Tug, Inc, New Castle, DE. More information available from US FCC via Universal Licensing System and Coast Guard Vessel Documentation Center.

Last reported at 2017-Sep-16 04:47 UTC. Time now 2017-Sep-24 10:26 UTC.
Position N 39°43' W 075°31'.
Warning: this ship's position is 8 days out of date.

Length 13 m; draft 2.3 m.

Type: Tug. MMSI: 367012690.

Date/timePositionNaut miles runAvg speedWind from/ knotsBaromVisibWave heightAir tempDewpointWater temp
2017-Sep-16 04:47N 39°43' W 075°31'2 6.2
2017-Sep-16 04:31N 39°41' W 075°31'4 8.3
2017-Sep-16 04:00N 39°38' W 075°34'4 7.8
2017-Sep-16 03:31N 39°34' W 075°33'3 6.0
2017-Sep-16 03:00N 39°34' W 075°29'0 0.3
2017-Sep-16 02:30N 39°35' W 075°29'1 2.3
2017-Sep-16 02:00N 39°34' W 075°30'2 4.8
2017-Sep-16 01:30N 39°33' W 075°32'1 1.3
2017-Sep-16 01:00N 39°32' W 075°33'3 6.9
2017-Sep-16 00:30N 39°34' W 075°30'2 3.9
2017-Sep-16 00:00N 39°33' W 075°32'3 6.2
2017-Sep-15 23:30N 39°36' W 075°34'4 7.6
2017-Sep-15 23:00N 39°40' W 075°33'4 7.4
2017-Sep-15 22:31N 39°43' W 075°31'  
2017-Sep-13 18:23N 39°43' W 075°31'0 0.0
2017-Sep-12 02:13N 39°43' W 075°31'1 7.3
2017-Sep-12 02:00N 39°42' W 075°31'4 8.4
2017-Sep-12 01:30N 39°38' W 075°35'4 7.5
2017-Sep-12 01:00N 39°35' W 075°35'3 5.2
2017-Sep-12 00:30N 39°33' W 075°33'3 5.9
2017-Sep-12 00:00N 39°34' W 075°30'0 0.8
2017-Sep-11 23:30N 39°34' W 075°29'3 1.6
2017-Sep-11 21:32N 39°33' W 075°32'0 7.6
2017-Sep-11 21:30N 39°32' W 075°33'3 5.2
2017-Sep-11 21:00N 39°35' W 075°34'1 1.6
2017-Sep-11 20:30N 39°35' W 075°35'2 3.8
2017-Sep-11 20:00N 39°37' W 075°36'4 8.3
2017-Sep-11 19:30N 39°40' W 075°33'3 6.7
2017-Sep-11 19:00N 39°43' W 075°31'0 0.0
2017-Sep-10 15:46N 39°43' W 075°31'0 0.0
2017-Sep-10 15:30N 39°43' W 075°31'0 0.0
2017-Sep-08 16:49N 39°43' W 075°31'1 2.1
2017-Sep-08 16:30N 39°43' W 075°30'1 1.3
2017-Sep-08 16:00N 39°43' W 075°31'0 0.0
2017-Sep-07 19:34N 39°43' W 075°31'0 0.7
2017-Sep-07 19:30N 39°43' W 075°31'4 8.1
2017-Sep-07 19:00N 39°39' W 075°33'4 8.6
2017-Sep-07 18:30N 39°35' W 075°36'3 6.8
2017-Sep-07 18:00N 39°33' W 075°33'1 1.9
2017-Sep-07 17:30N 39°34' W 075°33'4 8.6
2017-Sep-07 17:00N 39°38' W 075°34'4 8.6
2017-Sep-07 16:30N 39°41' W 075°31'2 0.2
2017-Sep-07 09:20N 39°43' W 075°31'2 6.2
2017-Sep-07 09:00N 39°41' W 075°31'4 8.0
2017-Sep-07 08:30N 39°38' W 075°34'4 7.5
2017-Sep-07 08:00N 39°34' W 075°33'3 5.7
2017-Sep-07 07:30N 39°34' W 075°29'5 2.8
2017-Sep-07 05:54N 39°31' W 075°33'1 3.5
2017-Sep-07 05:30N 39°32' W 075°33'3 6.2
2017-Sep-07 05:00N 39°35' W 075°35'3 5.4
2017-Sep-07 04:30N 39°37' W 075°36'4 8.4
2017-Sep-07 04:00N 39°40' W 075°32'3 5.9
2017-Sep-07 03:30N 39°43' W 075°31'  

Dump ship's entire track history